Terminal Aerodrome Forecast
Issued by NWS Twin Cities, MN

Home | Current Version | Previous Version | Text Only | Print | Product List | Glossary On
Versions: 1 2 3 4 5 6 7 8 9 10 11 12 13 14 15 16 17 18 19 20
000
FTUS43 KMPX 201925 AAA
TAFSTC
TAF AMD
KSTC 201925Z 2019/2118 13006KT 1/4SM FG OVC002
     FM210000 12004KT 1SM BR OVC003
     FM210600 13004KT 1SM -DZ BR OVC002
     FM211200 10007KT 3SM -RA BR OVC004=

USA.gov is the U.S. government's official web portal to all federal, state and local government web resources and services.